16°C Temp
16°C Dewpoint
100% Humidity
Temperature
3 KM/H
2 MPH
2 KTS
Calm
Due North

Wind Speed
Mostly Scattered
Clouds
Pressure 1021.92 (hPa) - 30.18 (in)
Visibility 6.2 (mi) - 10.0 (km)

Current Conditions
LSZA
Location Lugano 50 (km)
Metar :LSZA 240520Z VRB02KT 9999 SCT070 16/16 Q1022 NOSIG
Sat 24th August 06:20 am

Airport
  Metar Aviation API Data Provided by https://www.checkwx.com/ PHP scripts by weather34.com ©2019